Time;durP1;ratioP1;P1;durP2;ratioP2;P2;SDS_P1;SDS_P2;PMS_P1;PMS_P2;Temp;Humidity;BMP_temperature;BMP_pressure;BME280_temperature;BME280_humidity;BME280_pressure;Samples;Min_cycle;Max_cycle;Signal;HPM_P1;HPM_P2
2022/07/14 00:01:45;;;;;;;11.13;3.53;;;;;;;-144.47;50.30;53136.16;4978405;28;20119;-63
2022/07/14 00:04:10;;;;;;;10.18;3.80;;;;;;;-144.47;50.48;53110.31;4970783;28;20046;-63
2022/07/14 00:06:36;;;;;;;8.13;3.80;;;;;;;-144.47;50.51;53114.31;4976570;28;20115;-63
2022/07/14 00:09:02;;;;;;;15.07;3.92;;;;;;;-144.47;50.38;53118.28;4977778;28;20054;-62
2022/07/14 00:11:28;;;;;;;7.80;3.63;;;;;;;-144.47;50.53;53110.31;4983989;28;20125;-63
2022/07/14 00:13:54;;;;;;;10.55;3.80;;;;;;;-144.47;50.18;53118.28;4984915;28;20033;-63
2022/07/14 00:16:19;;;;;;;9.00;3.35;;;;;;;-144.47;50.03;53106.34;4982528;28;20030;-63
2022/07/14 00:18:45;;;;;;;8.60;3.55;;;;;;;-144.47;49.80;53114.31;4979384;28;20023;-63
2022/07/14 00:21:15;;;;;;;11.80;3.70;;;;;;;-144.47;49.77;53102.38;4984669;28;20033;-62
2022/07/14 00:23:42;;;;;;;10.32;3.72;;;;;;;-144.47;49.75;53104.38;4976398;28;20034;-61
2022/07/14 00:26:07;;;;;;;9.45;3.78;;;;;;;-144.47;49.41;53144.09;4977531;28;20027;-62
2022/07/14 00:28:33;;;;;;;11.00;3.45;;;;;;;-144.47;49.59;53114.31;4981814;28;20031;-63
2022/07/14 00:31:03;;;;;;;10.57;4.00;;;;;;;-144.47;49.40;53144.09;4970377;28;20038;-62
2022/07/14 00:33:32;;;;;;;8.40;3.78;;;;;;;-144.47;49.29;53126.22;4971197;28;20481;-63
2022/07/14 00:35:57;;;;;;;9.32;3.50;;;;;;;-144.47;49.16;53098.41;4983017;28;20026;-64
2022/07/14 00:38:22;;;;;;;9.43;3.90;;;;;;;-144.47;49.13;53108.34;4976987;28;20045;-62
2022/07/14 00:40:48;;;;;;;8.23;3.70;;;;;;;-144.47;49.03;53130.19;4973483;28;20023;-65
2022/07/14 00:43:13;;;;;;;13.45;3.33;;;;;;;-144.47;48.81;53118.28;4976385;28;20569;-63
2022/07/14 00:45:39;;;;;;;7.55;3.30;;;;;;;-144.47;48.56;53154.03;4983629;28;20040;-65
2022/07/14 00:48:05;;;;;;;9.88;3.28;;;;;;;-144.47;47.99;53108.34;4987821;28;20070;-65
2022/07/14 00:50:30;;;;;;;6.28;3.50;;;;;;;-144.47;48.03;53114.31;4989569;28;20026;-64
2022/07/14 00:52:56;;;;;;;8.82;2.95;;;;;;;-144.47;47.62;53100.41;4987283;28;20527;-64
2022/07/14 00:55:21;;;;;;;7.50;3.10;;;;;;;-144.47;47.94;53122.25;4988488;28;20022;-61
2022/07/14 00:57:46;;;;;;;17.63;3.50;;;;;;;-144.47;47.67;53116.28;4988428;28;20034;-63
2022/07/14 01:00:14;;;;;;;7.15;2.78;;;;;;;-144.47;47.72;53090.47;4986305;28;20425;-62
2022/07/14 01:02:41;;;;;;;7.72;2.92;;;;;;;-144.47;47.47;53104.38;4983882;28;20432;-65
2022/07/14 01:05:07;;;;;;;11.10;3.20;;;;;;;-144.47;47.26;53108.34;4979543;28;20272;-64
2022/07/14 01:07:33;;;;;;;7.72;2.75;;;;;;;-144.47;47.18;53114.31;4988685;28;20401;-63
2022/07/14 01:09:58;;;;;;;8.65;2.60;;;;;;;-144.47;46.86;53096.41;4989256;28;20041;-63
2022/07/14 01:12:24;;;;;;;5.97;2.63;;;;;;;-144.47;46.80;53108.34;4987916;28;20042;-64
2022/07/14 01:14:49;;;;;;;7.85;2.70;;;;;;;-144.47;46.63;53114.31;4987689;28;20120;-62
2022/07/14 01:17:15;;;;;;;7.20;2.83;;;;;;;-144.47;46.53;53140.13;4988038;28;20084;-62
2022/07/14 01:19:40;;;;;;;10.75;3.10;;;;;;;-144.47;46.16;53118.28;4989627;28;20165;-64
2022/07/14 01:22:06;;;;;;;6.90;3.30;;;;;;;-144.47;46.16;53108.34;4984554;28;20066;-64
2022/07/14 01:24:32;;;;;;;5.45;2.40;;;;;;;-144.47;46.05;53126.22;4979409;28;20093;-62
2022/07/14 01:26:58;;;;;;;6.80;2.72;;;;;;;-144.47;46.08;53106.34;5000475;28;20027;-63
2022/07/14 01:29:25;;;;;;;10.40;3.20;;;;;;;-144.47;46.00;53100.41;5003585;28;20031;-65
2022/07/14 01:31:50;;;;;;;7.20;2.60;;;;;;;-144.47;45.99;53068.63;4989947;28;20396;-64
2022/07/14 01:34:16;;;;;;;12.10;3.20;;;;;;;-144.47;46.08;53100.41;4992883;28;20022;-63
2022/07/14 01:36:42;;;;;;;9.07;3.30;;;;;;;-144.47;46.00;53102.38;4991728;28;20453;-62
2022/07/14 01:39:07;;;;;;;8.05;2.75;;;;;;;-144.47;46.00;53118.28;4987204;28;20027;-62
2022/07/14 01:41:34;;;;;;;7.25;3.13;;;;;;;-144.47;46.08;53088.47;4992362;28;20522;-63
2022/07/14 01:44:00;;;;;;;8.30;3.08;;;;;;;-144.47;46.55;53098.41;4992841;28;20117;-63
2022/07/14 01:46:25;;;;;;;10.50;3.20;;;;;;;-144.47;46.48;53118.28;4990589;28;20125;-63
2022/07/14 01:48:50;;;;;;;5.45;2.75;;;;;;;-144.47;46.57;53116.28;4982949;28;20034;-62
2022/07/14 01:51:16;;;;;;;7.80;3.05;;;;;;;-144.47;46.62;53098.41;4973269;28;20469;-63
2022/07/14 01:53:41;;;;;;;12.00;3.67;;;;;;;-144.47;46.65;53134.16;4973197;28;20471;-63
2022/07/14 01:56:08;;;;;;;7.53;2.75;;;;;;;-144.47;46.83;53084.50;4981480;28;20039;-62
2022/07/14 01:58:33;;;;;;;8.18;3.10;;;;;;;-144.47;46.77;53110.31;4973137;28;20030;-64
2022/07/14 02:03:44;;;;;;;7.90;3.10;;;;;;;-144.47;46.95;53173.88;4992948;28;20053;-61
2022/07/14 02:06:10;;;;;;;6.68;2.80;;;;;;;-144.47;47.05;53100.41;4979020;28;20499;-62
2022/07/14 02:08:35;;;;;;;8.80;3.03;;;;;;;-144.47;47.12;53102.38;4979906;28;20034;-63
2022/07/14 02:13:44;;;;;;;8.93;3.22;;;;;;;-144.47;47.37;53126.22;4983481;28;20057;-60
2022/07/14 02:16:10;;;;;;;11.50;3.15;;;;;;;-144.47;47.56;53098.41;4991182;28;20022;-65
2022/07/14 02:18:35;;;;;;;5.85;3.10;;;;;;;-144.47;47.66;53120.25;4978151;28;20035;-64
2022/07/14 02:21:00;;;;;;;8.35;2.75;;;;;;;-144.47;47.80;53118.28;4992195;28;20088;-65
2022/07/14 02:23:26;;;;;;;4.30;2.15;;;;;;;-144.47;47.86;53118.28;4977512;28;20105;-63
2022/07/14 02:25:51;;;;;;;12.90;3.58;;;;;;;-144.47;48.09;53088.47;4974318;28;20125;-64
2022/07/14 02:28:17;;;;;;;11.68;2.88;;;;;;;-144.47;48.36;53106.34;4984550;28;20109;-64
2022/07/14 02:30:42;;;;;;;11.73;2.60;;;;;;;-144.47;48.66;53116.28;4980111;28;20026;-64
2022/07/14 02:33:08;;;;;;;6.65;2.58;;;;;;;-144.47;48.74;53140.13;4983025;28;20138;-63
2022/07/14 02:35:34;;;;;;;10.65;2.97;;;;;;;-144.47;48.99;53148.06;4978911;28;20117;-62
2022/07/14 02:37:59;;;;;;;6.75;2.60;;;;;;;-144.47;49.11;53076.56;4978735;28;20050;-63
2022/07/14 02:40:24;;;;;;;10.65;2.95;;;;;;;-144.47;49.21;53102.38;4984081;28;20037;-63
2022/07/14 02:42:50;;;;;;;6.47;2.78;;;;;;;-144.47;49.51;53154.03;4985636;28;20081;-62
2022/07/14 02:45:15;;;;;;;13.20;3.33;;;;;;;-144.47;49.82;53136.16;4980133;28;20022;-62
2022/07/14 02:47:40;;;;;;;11.02;3.63;;;;;;;-144.47;50.00;53142.09;4983112;28;20022;-62
2022/07/14 02:50:06;;;;;;;15.10;3.10;;;;;;;-144.47;50.12;53128.22;4980982;28;20022;-63
2022/07/14 02:52:32;;;;;;;7.63;3.40;;;;;;;-144.47;50.09;53136.16;4977360;28;20476;-63
2022/07/14 02:54:57;;;;;;;8.90;3.13;;;;;;;-144.47;50.25;53154.03;4979383;28;20086;-65
2022/07/14 02:57:22;;;;;;;6.82;3.13;;;;;;;-144.47;50.38;53118.28;4984820;28;20460;-61
2022/07/14 02:59:48;;;;;;;10.85;3.28;;;;;;;-144.47;50.62;53114.31;4978894;28;20018;-64
2022/07/14 03:02:13;;;;;;;6.00;2.85;;;;;;;-144.47;50.65;53110.31;4986993;28;20081;-64
2022/07/14 03:04:39;;;;;;;8.10;2.70;;;;;;;-144.47;50.92;53150.06;4978738;28;20022;-64
2022/07/14 03:07:04;;;;;;;11.38;3.33;;;;;;;-144.47;50.92;53161.97;4987477;23;20078;-69
2022/07/14 03:09:30;;;;;;;6.38;2.83;;;;;;;-144.47;51.06;53124.22;4978077;28;20496;-69
2022/07/14 03:11:55;;;;;;;7.70;3.13;;;;;;;-144.47;51.14;53108.34;4990389;28;20038;-70
2022/07/14 03:14:20;;;;;;;9.57;2.65;;;;;;;-144.47;51.21;53128.22;4971670;28;20182;-71
2022/07/14 03:16:46;;;;;;;6.85;2.60;;;;;;;-144.47;51.20;53154.03;4970283;28;20121;-69
2022/07/14 03:19:11;;;;;;;10.15;2.97;;;;;;;-144.47;51.27;53146.09;4970668;28;20476;-68
2022/07/14 03:21:36;;;;;;;10.15;2.78;;;;;;;-144.47;51.32;53114.31;4983921;28;20023;-68
2022/07/14 03:24:02;;;;;;;6.85;2.30;;;;;;;-144.47;51.20;53146.09;4971634;28;20488;-69
2022/07/14 03:26:30;;;;;;;9.25;2.78;;;;;;;-144.47;51.25;53114.31;4970718;28;20030;-69
2022/07/14 03:28:55;;;;;;;13.98;2.80;;;;;;;-144.47;51.35;53154.03;4976982;28;20134;-70
2022/07/14 03:31:21;;;;;;;13.43;2.90;;;;;;;-144.47;51.24;53138.13;4990838;28;20120;-69
2022/07/14 03:33:46;;;;;;;8.10;2.90;;;;;;;-144.47;51.22;53150.06;4976219;28;20034;-68
2022/07/14 03:36:12;;;;;;;5.75;2.40;;;;;;;-144.47;51.27;53203.69;4974337;28;20058;-74
2022/07/14 03:38:37;;;;;;;8.30;3.00;;;;;;;-144.47;51.33;53128.22;4964691;28;20128;-69
2022/07/14 03:41:03;;;;;;;5.60;2.40;;;;;;;-144.47;51.34;53169.91;4969890;28;20026;-67
2022/07/14 03:43:29;;;;;;;6.60;2.83;;;;;;;-144.47;51.43;53116.28;4957222;28;20027;-67
2022/07/14 03:45:54;;;;;;;10.00;2.65;;;;;;;-144.47;51.48;53126.22;4965995;28;20110;-69
2022/07/14 03:48:21;;;;;;;9.15;2.85;;;;;;;-144.47;51.37;53160.00;4969049;28;20031;-67
2022/07/14 03:50:47;;;;;;;13.60;2.97;;;;;;;-144.47;51.41;53138.13;4968555;28;20031;-72
2022/07/14 03:53:12;;;;;;;11.20;3.00;;;;;;;-144.47;51.32;53120.25;4980708;28;20027;-70
2022/07/14 03:55:37;;;;;;;14.60;4.10;;;;;;;-144.47;51.38;53163.97;4983688;28;20517;-71
2022/07/14 03:58:03;;;;;;;10.90;3.05;;;;;;;-144.47;51.32;53152.03;4975235;28;20030;-69
2022/07/14 04:00:28;;;;;;;8.23;2.92;;;;;;;-144.47;51.30;53118.28;4976518;28;20037;-66
2022/07/14 04:02:54;;;;;;;12.30;2.85;;;;;;;-144.47;51.66;53130.19;4975161;28;20033;-75
2022/07/14 04:05:20;;;;;;;5.32;2.55;;;;;;;-144.47;51.65;53116.28;4976141;28;20035;-68
2022/07/14 04:07:46;;;;;;;8.65;2.80;;;;;;;-144.47;51.61;53098.41;4987451;28;20038;-73
2022/07/14 04:10:11;;;;;;;6.88;3.17;;;;;;;-144.47;51.74;53122.25;4982958;28;20109;-71
2022/07/14 04:12:36;;;;;;;6.78;2.72;;;;;;;-144.47;51.76;53146.09;4971539;28;20035;-68
2022/07/14 04:15:02;;;;;;;8.65;2.95;;;;;;;-144.47;51.64;53142.09;4976377;28;20452;-68
2022/07/14 04:17:28;;;;;;;6.72;2.58;;;;;;;-144.47;51.70;53152.03;4961577;28;20196;-70
2022/07/14 04:19:53;;;;;;;7.32;2.97;;;;;;;-144.47;51.44;53130.19;4981265;28;20473;-72
2022/07/14 04:22:18;;;;;;;5.32;2.67;;;;;;;-144.47;50.98;53173.88;4975409;28;20073;-67
2022/07/14 04:24:44;;;;;;;6.43;2.03;;;;;;;-144.47;51.09;53156.00;4988380;28;20037;-71
2022/07/14 04:27:09;;;;;;;6.97;2.38;;;;;;;-144.47;50.53;53154.03;4974793;28;20117;-68
2022/07/14 04:29:34;;;;;;;8.40;2.42;;;;;;;-144.47;50.18;53154.03;4986904;28;20026;-69
2022/07/14 04:32:00;;;;;;;6.78;1.90;;;;;;;-144.47;50.23;53152.03;4973230;28;20038;-71
2022/07/14 04:34:25;;;;;;;12.85;2.50;;;;;;;-144.47;49.69;53130.19;4980971;28;20457;-74
2022/07/14 04:36:51;;;;;;;7.85;1.75;;;;;;;-144.47;48.62;53128.22;4955846;28;20583;-68
2022/07/14 04:39:16;;;;;;;6.35;1.65;;;;;;;-144.47;48.33;53197.72;4964446;28;20023;-68
2022/07/14 04:41:41;;;;;;;8.20;2.10;;;;;;;-144.47;47.74;53104.38;4967351;28;20461;-70
2022/07/14 04:44:07;;;;;;;3.90;1.60;;;;;;;-144.47;47.88;53169.91;4967522;28;20030;-70
2022/07/14 04:46:32;;;;;;;9.07;1.70;;;;;;;-144.47;47.46;53110.31;4968337;28;20465;-69
2022/07/14 04:54:26;;;;;;;3.85;1.38;;;;;;;-144.47;46.71;53130.19;4968940;28;20045;-71
2022/07/14 04:56:51;;;;;;;15.48;1.60;;;;;;;-144.47;46.42;53179.84;4968499;28;20027;-69
2022/07/14 04:59:16;;;;;;;6.95;1.65;;;;;;;-144.47;45.95;53140.13;4966738;28;20018;-70
2022/07/14 05:01:42;;;;;;;5.95;1.10;;;;;;;-144.47;46.20;53138.13;4966485;28;20070;-69
2022/07/14 05:04:08;;;;;;;5.70;1.40;;;;;;;-144.47;46.32;53152.03;4983530;28;20113;-73
2022/07/14 05:06:33;;;;;;;5.88;1.25;;;;;;;-144.47;46.42;53126.22;4972594;28;20042;-72
2022/07/14 05:08:59;;;;;;;4.18;1.67;;;;;;;-144.47;46.60;53156.00;4976826;28;20027;-72
2022/07/14 05:11:24;;;;;;;8.05;1.88;;;;;;;-144.47;46.60;53118.28;4972380;28;20405;-72
2022/07/14 05:13:53;;;;;;;3.65;1.40;;;;;;;-144.47;47.10;53142.09;4984606;28;20018;-73
2022/07/14 05:16:18;;;;;;;6.65;1.50;;;;;;;-144.47;46.99;53156.00;4984078;28;20032;-72
2022/07/14 05:18:44;;;;;;;3.28;1.30;;;;;;;-144.47;46.84;53134.16;4979475;28;20023;-73
2022/07/14 05:21:09;;;;;;;6.53;1.60;;;;;;;-144.47;46.73;53106.34;4989685;28;20044;-72
2022/07/14 05:23:34;;;;;;;4.78;1.65;;;;;;;-144.47;46.47;53140.13;4983133;28;20038;-74
2022/07/14 05:26:00;;;;;;;6.43;1.30;;;;;;;-144.47;46.49;53134.16;4968236;28;20019;-71
2022/07/14 05:28:25;;;;;;;5.55;1.40;;;;;;;-144.47;46.43;53156.00;4985749;28;20022;-71
2022/07/14 05:30:57;;;;;;;6.88;1.98;;;;;;;-144.47;46.62;53152.03;4978290;28;20034;-68
2022/07/14 05:33:22;;;;;;;6.15;1.67;;;;;;;-144.47;46.45;53132.19;4977973;28;20125;-69
2022/07/14 05:35:48;;;;;;;7.22;2.17;;;;;;;-144.47;46.48;53154.03;4990948;28;20483;-69
2022/07/14 05:38:13;;;;;;;9.85;1.50;;;;;;;-144.47;46.67;53154.03;4975449;28;20562;-70
2022/07/14 05:40:39;;;;;;;4.65;1.98;;;;;;;-144.47;46.51;53128.22;4975895;28;20035;-71
2022/07/14 05:43:04;;;;;;;6.63;1.70;;;;;;;-144.47;46.56;53169.91;4990697;28;20126;-68
2022/07/14 05:45:29;;;;;;;8.07;1.27;;;;;;;-144.47;46.47;53146.09;4982342;28;20527;-70
2022/07/14 05:47:55;;;;;;;7.18;1.60;;;;;;;-144.47;46.48;53152.03;4976207;28;20456;-69
2022/07/14 05:50:20;;;;;;;10.13;1.70;;;;;;;-144.47;46.40;53154.03;4991933;28;20070;-67
2022/07/14 05:52:46;;;;;;;7.40;2.30;;;;;;;-144.47;47.26;53158.00;4987180;28;20045;-71
2022/07/14 05:55:11;;;;;;;10.00;1.88;;;;;;;-144.47;46.67;53148.06;4981163;28;20037;-68
2022/07/14 05:57:36;;;;;;;8.70;2.25;;;;;;;-144.47;46.37;53169.91;4974709;28;20483;-71
2022/07/14 06:00:03;;;;;;;9.48;2.03;;;;;;;-144.47;46.51;53116.28;4972834;28;20109;-72
2022/07/14 06:02:28;;;;;;;11.18;1.70;;;;;;;-144.47;46.36;53094.44;4974303;28;20152;-70
2022/07/14 06:04:53;;;;;;;12.85;2.13;;;;;;;-144.47;46.08;53140.13;4989277;28;20062;-68
2022/07/14 06:07:20;;;;;;;8.40;1.50;;;;;;;-144.47;45.98;53140.13;4990641;28;20062;-66
2022/07/14 06:09:47;;;;;;;9.38;1.73;;;;;;;-144.47;45.80;53106.34;4970441;28;20056;-71
2022/07/14 06:12:12;;;;;;;11.07;1.90;;;;;;;-144.47;46.23;53124.22;4964031;28;20397;-71
2022/07/14 06:14:37;;;;;;;5.93;1.60;;;;;;;-144.47;46.32;53152.03;4965954;28;20045;-72
2022/07/14 06:17:03;;;;;;;10.05;2.03;;;;;;;-144.47;46.57;53120.25;4965522;28;20528;-72
2022/07/14 06:19:28;;;;;;;7.93;1.65;;;;;;;-144.47;46.19;53124.22;4966008;28;20423;-72
2022/07/14 06:21:53;;;;;;;8.55;1.80;;;;;;;-144.47;46.49;53142.09;4966956;28;20022;-73
2022/07/14 06:24:19;;;;;;;8.48;1.83;;;;;;;-144.47;46.72;53126.22;4961523;28;20417;-72
2022/07/14 06:26:44;;;;;;;9.27;2.35;;;;;;;-144.47;46.57;53144.09;4967192;28;20037;-72
2022/07/14 06:29:10;;;;;;;7.70;1.60;;;;;;;-144.47;46.62;53118.28;4967501;28;20464;-71
2022/07/14 06:31:36;;;;;;;11.23;2.08;;;;;;;-144.47;47.03;53148.06;4967789;28;20050;-70
2022/07/14 06:34:03;;;;;;;12.80;1.90;;;;;;;-144.47;46.89;53138.13;4960913;28;20129;-70
2022/07/14 06:36:29;;;;;;;19.27;3.50;;;;;;;-144.47;47.66;53146.09;4969126;28;20058;-70
2022/07/14 06:38:55;;;;;;;18.35;3.03;;;;;;;-144.47;48.07;53146.09;4960526;28;20023;-71
2022/07/14 06:41:21;;;;;;;13.95;3.25;;;;;;;-144.47;48.17;53136.16;4986359;28;20053;-70
2022/07/14 06:43:46;;;;;;;8.85;1.92;;;;;;;-144.47;48.61;53152.03;4957676;28;20027;-69
2022/07/14 06:46:16;;;;;;;13.20;2.20;;;;;;;-144.47;48.83;53154.03;4961959;28;20043;-71
2022/07/14 06:48:41;;;;;;;16.27;2.70;;;;;;;-144.47;48.91;53142.09;4957229;28;20046;-69
2022/07/14 06:51:07;;;;;;;13.40;2.40;;;;;;;-144.47;48.75;53148.06;4958145;28;20039;-70
2022/07/14 06:53:33;;;;;;;20.27;2.58;;;;;;;-144.47;48.50;53090.47;4958087;28;20070;-72
2022/07/14 06:55:58;;;;;;;14.48;2.15;;;;;;;-144.47;48.29;53138.13;4961174;28;21131;-70
2022/07/14 06:58:24;;;;;;;18.45;2.70;;;;;;;-144.47;48.38;53118.28;4971635;28;20090;-70
2022/07/14 07:00:49;;;;;;;16.60;2.20;;;;;;;-144.47;48.09;53114.31;4957954;28;20141;-68
2022/07/14 07:03:14;;;;;;;9.63;2.10;;;;;;;-144.47;47.88;53169.91;4962919;28;20404;-72
2022/07/14 07:08:24;;;;;;;14.80;2.40;;;;;;;-144.47;47.00;53120.25;4962470;28;20062;-70
2022/07/14 07:10:50;;;;;;;21.83;2.60;;;;;;;-144.47;46.80;53112.31;4963642;28;20026;-73
2022/07/14 07:13:16;;;;;;;16.08;2.53;;;;;;;-144.47;46.02;53136.16;4962783;28;20590;-72
2022/07/14 07:15:41;;;;;;;15.80;2.55;;;;;;;-144.47;46.74;53142.09;4963233;28;20587;-69
2022/07/14 07:18:07;;;;;;;18.48;2.95;;;;;;;-144.47;45.95;53136.16;4963474;28;20571;-72
2022/07/14 07:20:36;;;;;;;12.02;2.00;;;;;;;-144.47;45.60;53112.31;4963092;28;20234;-69
2022/07/14 07:23:03;;;;;;;14.05;2.42;;;;;;;-144.47;45.95;53114.31;4959323;28;20059;-68
2022/07/14 07:25:28;;;;;;;15.30;2.85;;;;;;;-144.47;46.19;53126.22;4961863;28;20110;-69
2022/07/14 07:27:54;;;;;;;11.15;2.20;;;;;;;-144.47;46.10;53114.31;4962739;28;20162;-69
2022/07/14 07:30:20;;;;;;;15.45;2.20;;;;;;;-144.47;45.63;53112.31;4963323;28;20238;-70
2022/07/14 07:32:46;;;;;;;12.20;2.92;;;;;;;-144.47;45.12;53124.22;4946732;28;20483;-70
2022/07/14 07:35:11;;;;;;;16.60;2.35;;;;;;;-144.47;46.02;53138.13;4965017;28;20034;-71
2022/07/14 07:37:37;;;;;;;18.13;2.60;;;;;;;-144.47;45.81;53116.28;4967842;28;20079;-71
2022/07/14 07:40:04;;;;;;;13.55;2.03;;;;;;;-144.47;45.46;53114.31;4978060;28;20056;-71
2022/07/14 07:42:29;;;;;;;15.75;3.03;;;;;;;-144.47;45.97;53116.28;4981817;28;20042;-73
2022/07/14 07:44:57;;;;;;;24.17;3.05;;;;;;;-144.47;45.55;53130.19;4979592;28;20360;-71
2022/07/14 07:47:23;;;;;;;14.00;2.55;;;;;;;-144.47;45.58;53122.25;4957199;28;20035;-70
2022/07/14 07:49:50;;;;;;;21.15;3.00;;;;;;;-144.47;45.33;53130.19;4964382;28;20045;-73
2022/07/14 07:52:15;;;;;;;20.58;2.78;;;;;;;-144.47;44.96;53106.34;4963784;28;20031;-71
2022/07/14 07:54:41;;;;;;;19.90;2.63;;;;;;;-144.47;45.35;53102.38;4962590;28;20039;-70
2022/07/14 07:57:06;;;;;;;15.90;2.75;;;;;;;-144.47;45.89;53096.41;4961277;28;20031;-70
2022/07/14 07:59:32;;;;;;;17.55;2.67;;;;;;;-144.47;45.62;53146.09;4961347;28;20128;-69
2022/07/14 08:01:57;;;;;;;20.30;3.13;;;;;;;-144.47;45.59;53070.59;4962781;28;20038;-68
2022/07/14 08:04:22;;;;;;;20.70;2.17;;;;;;;-144.47;45.03;53136.16;4960499;28;20197;-70
2022/07/14 08:06:48;;;;;;;15.63;2.55;;;;;;;-144.47;44.88;53118.28;4963337;28;20023;-70
2022/07/14 08:09:13;;;;;;;16.95;2.75;;;;;;;-144.47;45.24;53110.31;4966540;28;20034;-68
2022/07/14 08:11:42;;;;;;;13.25;2.55;;;;;;;-144.47;44.83;53096.41;4968309;28;20061;-69
2022/07/14 08:14:47;;;;;;;;;;;;;;;-144.47;44.81;53114.31;4981852;28;20105;-71
2022/07/14 08:16:54;;;;;;;16.63;2.58;;;;;;;-144.47;44.63;53114.31;4970898;28;19910;-68
2022/07/14 08:19:19;;;;;;;11.93;2.20;;;;;;;-144.47;45.15;53122.25;4981175;28;20027;-71
2022/07/14 08:21:45;;;;;;;13.95;2.80;;;;;;;-144.47;45.90;53154.03;4983800;28;20029;-70
2022/07/14 08:24:10;;;;;;;15.60;3.33;;;;;;;-144.47;45.90;53154.03;4979792;28;20030;-72
2022/07/14 08:26:36;;;;;;;18.10;2.63;;;;;;;-144.47;45.34;53132.19;4972344;28;20340;-70
2022/07/14 08:29:01;;;;;;;10.07;2.00;;;;;;;-144.47;45.33;53138.13;4989696;28;20033;-72
2022/07/14 08:31:26;;;;;;;20.33;3.33;;;;;;;-144.47;44.42;53106.34;4975094;28;20026;-71
2022/07/14 08:33:52;;;;;;;14.63;3.13;;;;;;;-144.47;43.64;53088.47;4978189;28;20189;-69
2022/07/14 08:36:17;;;;;;;14.38;2.05;;;;;;;-144.47;43.81;53108.34;4975878;28;20027;-71
2022/07/14 08:38:42;;;;;;;14.35;2.70;;;;;;;-144.47;43.76;53100.41;4989895;28;20034;-67
2022/07/14 08:41:10;;;;;;;17.40;3.20;;;;;;;-144.47;44.00;53124.22;4989698;28;20057;-72
2022/07/14 08:43:36;;;;;;;16.92;2.42;;;;;;;-144.47;44.65;53086.50;4981345;28;20089;-72
2022/07/14 08:46:03;;;;;;;18.25;2.53;;;;;;;-144.47;44.41;53106.34;4970671;28;20477;-70
2022/07/14 08:48:29;;;;;;;13.50;2.30;;;;;;;-144.47;44.89;53128.22;4980695;28;20492;-71
2022/07/14 08:50:57;;;;;;;11.35;2.10;;;;;;;-144.47;44.73;53108.34;4971147;28;20042;-69
2022/07/14 08:53:23;;;;;;;14.82;2.17;;;;;;;-144.47;44.75;53104.38;4980001;28;20440;-69
2022/07/14 08:55:49;;;;;;;13.35;3.08;;;;;;;-144.47;44.51;53076.56;4984080;28;20147;-71
2022/07/14 08:58:15;;;;;;;13.25;2.63;;;;;;;-144.47;44.07;53118.28;4980202;28;20407;-69
2022/07/14 09:00:40;;;;;;;11.65;2.05;;;;;;;-144.47;43.76;53136.16;4975030;28;20035;-71
2022/07/14 09:03:06;;;;;;;14.73;2.65;;;;;;;-144.47;43.91;53140.13;4969233;28;20041;-71
2022/07/14 09:05:31;;;;;;;14.90;2.92;;;;;;;-144.47;43.90;53102.38;5015023;23;20975;-64
2022/07/14 09:07:57;;;;;;;13.48;2.63;;;;;;;-144.47;43.44;53163.97;4994433;28;20038;-64
2022/07/14 09:10:25;;;;;;;8.80;2.22;;;;;;;-144.47;43.46;53108.34;4995299;28;20391;-65
2022/07/14 09:12:51;;;;;;;9.73;2.08;;;;;;;-144.47;43.07;53082.53;5000029;28;20031;-64
2022/07/14 09:18:23;;;;;;;25.02;3.20;;;;;;;-144.47;43.22;53136.16;4989002;28;20031;-64
2022/07/14 09:20:52;;;;;;;16.90;2.67;;;;;;;-144.47;43.50;53148.06;4968231;28;20107;-63
2022/07/14 09:23:31;;;;;;;13.88;2.63;;;;;;;-144.47;43.24;53146.09;4981008;28;20050;-64
2022/07/14 09:26:15;;;;;;;15.05;2.80;;;;;;;-144.47;43.17;53064.66;4968331;28;20019;-65
2022/07/14 09:28:43;;;;;;;33.42;3.30;;;;;;;-144.47;43.32;53130.19;4988711;28;20030;-63
2022/07/14 09:31:29;;;;;;;21.85;3.28;;;;;;;-144.47;43.49;53072.59;4975971;28;20027;-66
2022/07/14 09:34:05;;;;;;;21.48;2.92;;;;;;;-144.47;43.48;53114.31;4969822;28;20407;-63
2022/07/14 09:36:33;;;;;;;20.33;2.67;;;;;;;-144.47;43.15;53136.16;4986386;28;20386;-64
2022/07/14 09:39:06;;;;;;;;;;;;;;;-144.47;43.44;53110.31;4959356;28;20070;-65
2022/07/14 09:41:47;;;;;;;9.30;2.22;;;;;;;-144.47;42.84;53090.47;4966412;28;19927;-64
2022/07/14 09:44:17;;;;;;;14.25;2.67;;;;;;;-144.47;42.97;53114.31;4969393;28;20106;-66
2022/07/14 09:46:56;;;;;;;12.52;2.92;;;;;;;-144.47;43.46;53102.38;4981464;28;20035;-63
2022/07/14 09:49:30;;;;;;;13.40;2.83;;;;;;;-144.47;43.28;53068.63;4970256;28;20090;-65
2022/07/14 09:52:06;;;;;;;14.70;3.20;;;;;;;-144.47;43.59;53102.38;4972388;28;20034;-66
2022/07/14 09:54:37;;;;;;;13.32;3.38;;;;;;;-144.47;43.46;53120.25;4973207;28;20050;-65
2022/07/14 09:57:06;;;;;;;11.27;2.70;;;;;;;-144.47;43.49;53161.97;4971808;28;20040;-66
2022/07/14 09:59:42;;;;;;;19.90;3.97;;;;;;;-144.47;43.45;53106.34;4976333;28;20133;-65
2022/07/14 10:02:13;;;;;;;11.85;3.08;;;;;;;-144.47;43.86;53130.19;4979058;28;20104;-67
2022/07/14 10:04:39;;;;;;;16.80;3.88;;;;;;;-144.47;44.19;53098.41;4980904;28;20061;-64
2022/07/14 10:07:05;;;;;;;17.40;3.85;;;;;;;-144.47;44.16;53118.28;4991122;28;20056;-66
2022/07/14 10:09:32;;;;;;;16.70;4.45;;;;;;;-144.47;43.96;53144.09;4984560;28;20023;-64
2022/07/14 10:12:00;;;;;;;12.55;4.72;;;;;;;-144.47;43.94;53110.31;4967779;28;20070;-65
2022/07/14 10:14:26;;;;;;;16.52;4.43;;;;;;;-144.47;43.73;53120.25;4977816;28;20022;-65
2022/07/14 10:16:52;;;;;;;15.45;3.92;;;;;;;-144.47;43.41;53098.41;4985436;28;20049;-66
2022/07/14 10:19:19;;;;;;;16.30;4.30;;;;;;;-144.47;43.34;53132.19;4981124;28;20109;-63
2022/07/14 10:21:46;;;;;;;15.10;3.83;;;;;;;-144.47;42.87;53114.31;4979699;28;20027;-65
2022/07/14 10:24:12;;;;;;;18.38;3.92;;;;;;;-144.47;42.22;53094.44;4983553;28;20042;-65
2022/07/14 10:26:38;;;;;;;12.13;3.35;;;;;;;-144.47;41.91;53112.31;4967880;28;20030;-65
2022/07/14 10:29:05;;;;;;;12.77;3.95;;;;;;;-144.47;41.72;53100.41;4972130;28;20503;-66
2022/07/14 10:31:59;;;;;;;15.85;3.30;;;;;;;-144.47;41.19;53112.31;4975082;28;20042;-65
2022/07/14 10:34:54;;;;;;;15.50;3.83;;;;;;;-144.47;40.53;53096.41;4987373;28;20030;-64
2022/07/14 10:37:29;;;;;;;14.70;3.47;;;;;;;-144.47;39.98;53092.44;4972026;28;20058;-67
2022/07/14 10:40:03;;;;;;;12.20;3.65;;;;;;;-144.47;39.11;53082.53;4972981;28;20126;-66
2022/07/14 10:43:10;;;;;;;15.48;3.97;;;;;;;-144.47;38.47;53050.75;4972995;28;20030;-64
2022/07/14 10:45:46;;;;;;;14.70;3.08;;;;;;;-144.47;38.50;53070.59;4971816;28;20124;-66
2022/07/14 10:48:33;;;;;;;13.93;3.03;;;;;;;-144.47;38.74;53054.72;4972236;28;20023;-66
2022/07/14 10:51:14;;;;;;;12.40;3.30;;;;;;;-144.47;38.48;53062.66;4984992;28;20034;-67
2022/07/14 10:54:00;;;;;;;13.98;3.20;;;;;;;-144.47;38.17;53054.72;4979349;28;20592;-65
2022/07/14 10:56:27;;;;;;;11.93;3.08;;;;;;;-144.47;38.21;53042.78;4968223;28;20122;-66
2022/07/14 10:59:27;;;;;;;7.25;2.35;;;;;;;-144.47;38.44;53064.66;4969385;28;20118;-66
2022/07/14 11:02:13;;;;;;;10.60;3.15;;;;;;;-144.47;38.07;53038.81;4959736;28;20421;-68
2022/07/14 11:05:12;;;;;;;12.98;2.63;;;;;;;-144.47;37.56;53056.69;4974497;28;20495;-65
2022/07/14 11:08:06;;;;;;;8.45;2.75;;;;;;;-144.47;37.85;53058.69;4990330;28;20079;-67
2022/07/14 11:10:31;;;;;;;14.57;2.90;;;;;;;-144.47;38.19;53056.69;4968213;28;20431;-66
2022/07/14 11:13:06;;;;;;;9.57;2.63;;;;;;;-144.47;37.85;53028.88;4964351;28;20027;-65
2022/07/14 11:15:42;;;;;;;15.57;2.92;;;;;;;-144.47;37.89;53088.47;4965329;28;20105;-67
2022/07/14 11:18:26;;;;;;;20.25;3.00;;;;;;;-144.47;37.37;53052.72;4964315;28;20054;-67
2022/07/14 11:20:55;;;;;;;14.40;3.28;;;;;;;-144.47;37.21;53076.56;4967417;28;20026;-66
2022/07/14 11:23:24;;;;;;;15.38;2.92;;;;;;;-144.47;37.21;53042.78;4965017;28;20031;-66
2022/07/14 11:25:51;;;;;;;9.30;2.85;;;;;;;-144.47;37.31;53040.81;4967956;28;20450;-67
2022/07/14 11:28:39;;;;;;;11.05;3.40;;;;;;;-144.47;37.20;53054.72;4968272;28;20033;-66
2022/07/14 11:31:12;;;;;;;13.27;3.00;;;;;;;-144.47;37.22;53058.69;4965956;28;20062;-69
2022/07/14 11:36:24;;;;;;;13.65;3.03;;;;;;;-144.47;37.01;53068.63;4966608;28;20111;-66